createdAt,value
2024-05-09T00:01:07.847Z,55.48
2024-05-09T00:04:12.659Z,55.49
2024-05-09T00:07:17.367Z,56.27
2024-05-09T00:10:33.167Z,55.73
2024-05-09T00:13:41.347Z,56.51
2024-05-09T00:16:46.042Z,56.14
2024-05-09T00:19:50.809Z,56.73
2024-05-09T00:22:55.528Z,56.54
2024-05-09T00:26:02.717Z,57.15
2024-05-09T00:29:07.416Z,57.20
2024-05-09T00:32:12.055Z,56.89
2024-05-09T00:35:16.841Z,56.85
2024-05-09T00:38:21.491Z,58.18
2024-05-09T00:41:28.867Z,57.96
2024-05-09T00:44:33.594Z,58.21
2024-05-09T00:47:38.779Z,58.49
2024-05-09T00:50:45.298Z,58.15
2024-05-09T00:53:50.753Z,57.79
2024-05-09T00:56:59.032Z,58.18
2024-05-09T01:00:06.074Z,58.62
2024-05-09T01:03:14.102Z,58.99
2024-05-09T01:06:19.293Z,59.14
2024-05-09T01:09:23.994Z,58.31
2024-05-09T01:12:31.417Z,58.62
2024-05-09T01:15:36.836Z,59.28
2024-05-09T01:18:41.682Z,58.70
2024-05-09T01:21:46.674Z,58.63
2024-05-09T01:24:54.485Z,59.21
2024-05-09T01:27:58.998Z,59.27
2024-05-09T01:31:03.646Z,59.39
2024-05-09T01:34:08.251Z,59.48
2024-05-09T01:37:12.907Z,59.53
2024-05-09T01:40:25.366Z,60.08
2024-05-09T01:43:38.595Z,60.54
2024-05-09T01:46:43.281Z,59.80
2024-05-09T01:49:47.905Z,60.74
2024-05-09T01:52:52.657Z,60.73
2024-05-09T01:55:59.863Z,61.10
2024-05-09T01:59:05.063Z,61.30
2024-05-09T02:02:10.217Z,60.77
2024-05-09T02:05:15.081Z,61.08
2024-05-09T02:08:21.853Z,61.29
2024-05-09T02:11:29.394Z,61.15
2024-05-09T02:14:34.077Z,60.82
2024-05-09T02:17:38.913Z,61.04
2024-05-09T02:20:44.399Z,62.03
2024-05-09T02:23:49.008Z,61.89
2024-05-09T02:26:56.163Z,61.92
2024-05-09T02:30:00.774Z,62.18
2024-05-09T02:33:05.739Z,62.02
2024-05-09T02:36:10.461Z,62.00
2024-05-09T02:39:12.414Z,62.57
2024-05-09T02:42:19.625Z,63.26
2024-05-09T02:45:21.522Z,63.46
2024-05-09T02:48:26.684Z,63.94
2024-05-09T02:51:28.742Z,63.68
2024-05-09T02:54:33.307Z,62.64
2024-05-09T02:57:37.906Z,63.55
2024-05-09T03:00:43.268Z,63.91
2024-05-09T03:03:45.908Z,64.15
2024-05-09T03:06:50.879Z,64.16
2024-05-09T03:09:52.813Z,64.06
2024-05-09T03:13:00.200Z,64.32
2024-05-09T03:16:02.197Z,63.73
2024-05-09T03:19:06.955Z,64.38
2024-05-09T03:22:08.994Z,64.47
2024-05-09T03:25:13.835Z,64.44
2024-05-09T03:28:21.075Z,64.98
2024-05-09T03:31:23.059Z,64.72
2024-05-09T03:34:28.018Z,63.70
2024-05-09T03:37:32.922Z,64.54
2024-05-09T03:40:37.595Z,64.65
2024-05-09T03:43:46.822Z,64.34
2024-05-09T03:46:51.735Z,64.55
2024-05-09T03:49:53.725Z,64.71
2024-05-09T03:52:58.343Z,65.01
2024-05-09T03:56:00.484Z,64.98
2024-05-09T03:59:07.716Z,65.60
2024-05-09T04:02:09.897Z,64.78
2024-05-09T04:05:14.589Z,65.77
2024-05-09T04:08:16.817Z,65.61
2024-05-09T04:11:21.683Z,65.95
2024-05-09T04:14:26.453Z,66.11
2024-05-09T04:17:31.296Z,66.74
2024-05-09T04:20:38.639Z,65.75
2024-05-09T04:23:45.245Z,65.44
2024-05-09T04:26:52.422Z,65.34
2024-05-09T04:29:57.031Z,65.78
2024-05-09T04:33:01.906Z,64.77
2024-05-09T04:36:07.028Z,64.86
2024-05-09T04:39:08.914Z,63.73
2024-05-09T04:42:13.421Z,62.67
2024-05-09T04:45:17.967Z,61.51
2024-05-09T04:48:22.689Z,60.96
2024-05-09T04:51:25.330Z,61.12
2024-05-09T04:54:35.966Z,57.47
2024-05-09T04:57:38.830Z,58.19
2024-05-09T05:00:46.043Z,56.89
2024-05-09T05:03:48.297Z,56.90
2024-05-09T05:06:52.844Z,54.35
2024-05-09T05:09:55.052Z,54.02
2024-05-09T05:13:15.312Z,53.23
2024-05-09T05:16:22.481Z,50.40
2024-05-09T05:19:24.519Z,50.38
2024-05-09T05:22:29.383Z,49.43
2024-05-09T05:25:31.966Z,49.22
2024-05-09T05:28:36.587Z,47.01
2024-05-09T05:31:41.205Z,47.75
2024-05-09T05:34:45.805Z,47.46
2024-05-09T05:37:47.787Z,47.34
2024-05-09T05:40:52.471Z,45.80
2024-05-09T05:43:57.022Z,45.96
2024-05-09T05:47:01.822Z,44.54
2024-05-09T05:50:17.601Z,43.72
2024-05-09T05:53:46.320Z,43.87
2024-05-09T05:56:50.857Z,43.50
2024-05-09T05:59:52.898Z,42.83
2024-05-09T06:03:00.298Z,43.14
2024-05-09T06:06:05.856Z,41.83
2024-05-09T06:09:08.013Z,41.69
2024-05-09T06:12:12.801Z,42.42
2024-05-09T06:15:14.855Z,41.55
2024-05-09T06:18:22.436Z,41.00
2024-05-09T06:21:24.586Z,39.53
2024-05-09T06:24:29.244Z,39.87
2024-05-09T06:27:31.162Z,39.21
2024-05-09T06:30:40.196Z,37.98
2024-05-09T06:33:49.166Z,39.19
2024-05-09T06:36:51.123Z,39.64
2024-05-09T06:39:55.659Z,39.43
2024-05-09T06:42:59.251Z,37.58
2024-05-09T06:46:04.160Z,38.52
2024-05-09T06:49:13.731Z,37.84
2024-05-09T06:52:19.524Z,35.86
2024-05-09T06:55:24.366Z,35.44
2024-05-09T06:58:26.271Z,35.57
2024-05-09T07:01:30.967Z,36.19
2024-05-09T07:04:35.759Z,35.63
2024-05-09T07:07:40.423Z,33.32
2024-05-09T07:10:45.140Z,34.43
2024-05-09T07:13:47.156Z,36.17
2024-05-09T07:16:51.897Z,33.30
2024-05-09T07:19:56.610Z,34.16
2024-05-09T07:23:01.684Z,34.59
2024-05-09T07:26:03.843Z,32.39
2024-05-09T07:29:08.649Z,32.33
2024-05-09T07:32:10.722Z,32.96
2024-05-09T07:35:18.149Z,31.75
2024-05-09T07:38:20.318Z,31.30
2024-05-09T07:41:25.118Z,31.44
2024-05-09T07:44:27.186Z,30.86
2024-05-09T07:48:57.488Z,30.58
2024-05-09T07:52:45.954Z,30.87
2024-05-09T07:54:21.978Z,31.32
2024-05-09T07:57:27.251Z,30.34
2024-05-09T08:00:32.287Z,29.75
2024-05-09T08:03:34.841Z,29.38
2024-05-09T08:06:42.704Z,29.13
2024-05-09T08:09:48.809Z,29.34
2024-05-09T08:12:54.035Z,30.93
2024-05-09T08:15:56.101Z,29.21
2024-05-09T08:19:00.891Z,28.87
2024-05-09T08:22:07.285Z,27.91
2024-05-09T08:25:15.589Z,27.94
2024-05-09T08:28:20.302Z,26.52
2024-05-09T08:31:25.142Z,26.79
2024-05-09T08:34:27.175Z,28.32
2024-05-09T08:37:38.737Z,26.32
2024-05-09T08:40:42.864Z,25.38
2024-05-09T08:43:47.604Z,25.76
2024-05-09T08:46:51.788Z,25.88
2024-05-09T08:49:58.669Z,25.44
2024-05-09T08:53:06.065Z,25.02
2024-05-09T08:56:11.491Z,26.01
2024-05-09T08:59:23.628Z,24.92
2024-05-09T09:02:26.706Z,25.77
2024-05-09T09:05:34.267Z,26.58
2024-05-09T09:08:39.652Z,24.92
2024-05-09T09:11:44.365Z,24.93
2024-05-09T09:14:46.242Z,24.19
2024-05-09T09:17:57.330Z,24.08
2024-05-09T09:21:02.885Z,24.06
2024-05-09T09:24:09.961Z,24.04
2024-05-09T09:27:16.662Z,23.55
2024-05-09T09:30:34.001Z,24.30
2024-05-09T09:33:44.922Z,23.47
2024-05-09T09:36:50.683Z,23.96
2024-05-09T09:39:55.573Z,23.08
2024-05-09T09:43:00.747Z,22.64
2024-05-09T09:46:07.207Z,23.09
2024-05-09T09:49:12.968Z,23.05
2024-05-09T09:52:15.462Z,23.57
2024-05-09T09:55:25.217Z,23.86
2024-05-09T09:58:29.383Z,23.38
2024-05-09T10:01:34.701Z,22.16
2024-05-09T10:04:40.847Z,22.93
2024-05-09T10:07:45.764Z,22.32
2024-05-09T10:10:53.993Z,21.48
2024-05-09T10:13:57.597Z,21.66
2024-05-09T10:17:07.342Z,21.63
2024-05-09T10:20:14.748Z,21.53
2024-05-09T10:23:27.506Z,21.99
2024-05-09T10:26:36.482Z,21.50
2024-05-09T10:29:41.030Z,22.40
2024-05-09T10:32:45.184Z,22.24
2024-05-09T10:35:54.327Z,20.71
2024-05-09T10:38:56.348Z,21.51
2024-05-09T10:42:03.967Z,20.40
2024-05-09T10:45:09.521Z,20.49
2024-05-09T10:48:12.062Z,20.93
2024-05-09T10:51:16.846Z,21.10
2024-05-09T10:54:21.431Z,20.86
2024-05-09T10:57:27.384Z,21.26
2024-05-09T11:00:36.195Z,21.19
2024-05-09T11:03:39.710Z,23.12
2024-05-09T11:06:44.954Z,22.22
2024-05-09T11:09:47.872Z,22.63
2024-05-09T11:12:55.120Z,23.37
2024-05-09T11:16:00.253Z,21.45
2024-05-09T11:19:02.589Z,21.15
2024-05-09T11:22:07.664Z,20.33
2024-05-09T11:25:13.052Z,21.03
2024-05-09T11:28:18.037Z,21.40
2024-05-09T11:31:22.771Z,21.04
2024-05-09T11:34:27.510Z,20.62
2024-05-09T11:37:31.354Z,20.96
2024-05-09T11:40:36.990Z,20.72
2024-05-09T11:43:44.151Z,20.26
2024-05-09T11:46:46.191Z,21.29
2024-05-09T11:49:50.758Z,22.31
2024-05-09T11:52:52.783Z,21.76
2024-05-09T11:55:57.347Z,20.84
2024-05-09T11:59:04.557Z,21.01
2024-05-09T12:02:06.756Z,21.27
2024-05-09T12:05:11.401Z,20.85
2024-05-09T12:08:14.351Z,21.05
2024-05-09T12:11:19.067Z,21.73
2024-05-09T12:14:26.275Z,22.77
2024-05-09T12:17:31.082Z,20.99
2024-05-09T12:20:37.601Z,21.80
2024-05-09T12:23:44.241Z,22.76
2024-05-09T12:26:46.303Z,21.16
2024-05-09T12:29:53.425Z,21.57
2024-05-09T12:32:55.546Z,21.45
2024-05-09T12:36:00.412Z,21.17
2024-05-09T12:39:02.925Z,21.74
2024-05-09T12:42:08.288Z,20.69
2024-05-09T12:45:13.690Z,21.38
2024-05-09T12:48:18.447Z,22.11
2024-05-09T12:51:23.098Z,21.27
2024-05-09T12:54:25.002Z,21.19
2024-05-09T12:57:29.816Z,21.48
2024-05-09T13:00:34.912Z,21.38
2024-05-09T13:03:39.772Z,22.03
2024-05-09T13:06:44.605Z,21.88
2024-05-09T13:09:46.740Z,21.52
2024-05-09T13:12:51.602Z,21.84
2024-05-09T13:15:56.174Z,22.40
2024-05-09T13:19:00.900Z,20.95
2024-05-09T13:22:02.894Z,21.38
2024-05-09T13:25:08.190Z,22.41
2024-05-09T13:28:10.440Z,21.97
2024-05-09T13:31:18.188Z,22.00
2024-05-09T13:34:20.412Z,22.29
2024-05-09T13:37:25.149Z,24.10
2024-05-09T13:40:32.939Z,23.98
2024-05-09T13:43:39.986Z,24.08
2024-05-09T13:46:44.645Z,23.69
2024-05-09T13:49:49.990Z,24.05
2024-05-09T13:52:52.086Z,23.11
2024-05-09T13:55:56.925Z,23.43
2024-05-09T13:58:59.173Z,23.82
2024-05-09T14:02:06.658Z,25.60
2024-05-09T14:05:09.070Z,24.96
2024-05-09T14:08:15.514Z,24.68
2024-05-09T14:11:20.304Z,24.41
2024-05-09T14:14:22.346Z,24.53
2024-05-09T14:17:29.776Z,24.30
2024-05-09T14:20:32.606Z,24.74
2024-05-09T14:23:37.495Z,23.56
2024-05-09T14:26:42.140Z,24.94
2024-05-09T14:29:44.243Z,24.78
2024-05-09T14:32:51.474Z,25.05
2024-05-09T14:35:53.922Z,24.35
2024-05-09T14:38:58.597Z,24.81
2024-05-09T14:42:00.634Z,24.65
2024-05-09T14:45:06.197Z,25.08
2024-05-09T14:48:11.544Z,26.16
2024-05-09T14:51:16.500Z,25.76
2024-05-09T14:54:21.079Z,25.48
2024-05-09T14:57:25.636Z,25.87
2024-05-09T15:00:33.121Z,25.75
2024-05-09T15:03:43.076Z,25.89
2024-05-09T15:06:45.314Z,26.15
2024-05-09T15:09:50.044Z,26.18
2024-05-09T15:12:52.196Z,26.96
2024-05-09T15:15:56.994Z,26.56
2024-05-09T15:19:02.114Z,26.46
2024-05-09T15:22:07.302Z,26.60
2024-05-09T15:25:09.325Z,26.55
2024-05-09T15:28:14.112Z,27.65
2024-05-09T15:31:18.734Z,27.30
2024-05-09T15:34:23.679Z,27.31
2024-05-09T15:37:28.797Z,27.00
2024-05-09T15:40:37.891Z,27.97
2024-05-09T15:43:44.923Z,27.30
2024-05-09T15:46:47.555Z,28.46
2024-05-09T15:49:54.920Z,28.33
2024-05-09T15:52:57.037Z,28.19
2024-05-09T15:56:01.794Z,27.84
2024-05-09T15:59:03.991Z,27.61
2024-05-09T16:02:11.394Z,27.90
2024-05-09T16:05:16.322Z,28.86
2024-05-09T16:08:21.015Z,29.00
2024-05-09T16:11:23.568Z,29.74
2024-05-09T16:14:28.190Z,30.20
2024-05-09T16:17:30.427Z,29.34
2024-05-09T16:20:41.114Z,29.46
2024-05-09T16:23:44.422Z,29.98
2024-05-09T16:26:48.965Z,30.05
2024-05-09T16:29:51.023Z,30.53
2024-05-09T16:32:55.869Z,31.76
2024-05-09T16:36:03.267Z,30.82
2024-05-09T16:39:05.169Z,31.31
2024-05-09T16:42:09.993Z,32.22
2024-05-09T16:45:12.383Z,32.15
2024-05-09T16:48:17.384Z,31.65
2024-05-09T16:51:24.726Z,31.58
2024-05-09T16:54:29.785Z,32.64
2024-05-09T16:57:31.787Z,31.50
2024-05-09T17:00:41.669Z,31.67
2024-05-09T17:03:45.686Z,31.71
2024-05-09T17:06:53.277Z,32.21
2024-05-09T17:09:57.843Z,32.01
2024-05-09T17:13:03.267Z,33.57
2024-05-09T17:16:10.342Z,33.26
2024-05-09T17:19:14.927Z,33.62
2024-05-09T17:22:20.258Z,33.81
2024-05-09T17:25:24.871Z,33.75
2024-05-09T17:28:26.970Z,34.19
2024-05-09T17:31:31.602Z,34.73
2024-05-09T17:34:33.733Z,35.42
2024-05-09T17:37:41.126Z,34.68
2024-05-09T17:40:43.173Z,35.38
2024-05-09T17:43:47.857Z,35.78
2024-05-09T17:46:49.978Z,36.40
2024-05-09T17:49:54.815Z,36.18
2024-05-09T17:52:59.597Z,37.06
2024-05-09T17:56:04.764Z,36.86
2024-05-09T17:59:09.186Z,37.58
2024-05-09T18:02:15.485Z,37.36
2024-05-09T18:05:17.611Z,37.46
2024-05-09T18:08:24.881Z,38.50
2024-05-09T18:11:29.589Z,38.01
2024-05-09T18:14:31.588Z,38.71
2024-05-09T18:17:37.335Z,39.38
2024-05-09T18:20:44.052Z,40.31
2024-05-09T18:23:55.495Z,40.51
2024-05-09T18:27:02.080Z,40.51
2024-05-09T18:30:09.311Z,41.17
2024-05-09T18:33:14.768Z,41.01
2024-05-09T18:36:22.193Z,42.28
2024-05-09T18:39:26.730Z,42.28
2024-05-09T18:42:31.394Z,42.70
2024-05-09T18:45:33.405Z,42.62
2024-05-09T18:48:38.324Z,42.46
2024-05-09T18:51:43.035Z,43.57
2024-05-09T18:54:50.434Z,44.05
2024-05-09T18:57:52.399Z,43.56
2024-05-09T19:00:59.899Z,44.97
2024-05-09T19:04:03.587Z,44.92
2024-05-09T19:07:08.876Z,44.58
2024-05-09T19:10:22.222Z,45.70
2024-05-09T19:13:30.603Z,44.99
2024-05-09T19:16:32.811Z,45.81
2024-05-09T19:19:37.680Z,45.43
2024-05-09T19:22:42.311Z,45.44
2024-05-09T19:25:49.445Z,45.14
2024-05-09T19:28:52.694Z,45.90
2024-05-09T19:31:57.305Z,45.78
2024-05-09T19:35:02.637Z,46.49
2024-05-09T19:38:05.337Z,46.03
2024-05-09T19:41:12.800Z,46.14
2024-05-09T19:44:14.798Z,46.46
2024-05-09T19:47:19.922Z,46.39
2024-05-09T19:50:32.419Z,46.46
2024-05-09T19:53:42.505Z,45.45
2024-05-09T19:56:49.760Z,45.31
2024-05-09T19:59:51.758Z,45.60
2024-05-09T20:02:56.595Z,45.87
2024-05-09T20:05:58.782Z,44.72
2024-05-09T20:09:03.312Z,46.01
2024-05-09T20:12:09.541Z,45.70
2024-05-09T20:15:14.093Z,46.90
2024-05-09T20:18:20.657Z,46.72
2024-05-09T20:21:22.755Z,46.84
2024-05-09T20:24:27.419Z,46.66
2024-05-09T20:27:32.019Z,47.60
2024-05-09T20:30:37.241Z,48.22
2024-05-09T20:33:39.441Z,48.21
2024-05-09T20:36:44.252Z,47.97
2024-05-09T20:39:48.923Z,48.45
2024-05-09T20:42:56.428Z,48.76
2024-05-09T20:46:01.059Z,49.34
2024-05-09T20:49:05.911Z,49.00
2024-05-09T20:52:08.110Z,49.15
2024-05-09T20:55:13.665Z,49.89
2024-05-09T20:58:21.292Z,48.91
2024-05-09T21:01:23.988Z,48.93
2024-05-09T21:04:28.735Z,49.34
2024-05-09T21:07:30.779Z,50.12
2024-05-09T21:10:35.856Z,50.56
2024-05-09T21:13:43.334Z,50.69
2024-05-09T21:16:45.432Z,50.67
2024-05-09T21:19:50.508Z,51.09
2024-05-09T21:22:52.477Z,51.27
2024-05-09T21:25:57.050Z,51.21
2024-05-09T21:29:01.943Z,52.09
2024-05-09T21:32:06.693Z,52.15
2024-05-09T21:35:08.976Z,51.36
2024-05-09T21:38:14.715Z,51.84
2024-05-09T21:41:17.057Z,51.45
2024-05-09T21:44:24.303Z,52.29
2024-05-09T21:47:29.166Z,52.22
2024-05-09T21:50:37.200Z,52.27
2024-05-09T21:53:45.443Z,52.44
2024-05-09T21:56:51.895Z,52.94
2024-05-09T21:59:56.707Z,52.63
2024-05-09T22:03:01.522Z,52.80
2024-05-09T22:06:03.730Z,53.49
2024-05-09T22:09:09.122Z,52.66
2024-05-09T22:12:14.067Z,53.26
2024-05-09T22:15:21.589Z,53.51
2024-05-09T22:18:23.892Z,53.49
2024-05-09T22:21:28.487Z,53.47
2024-05-09T22:24:30.401Z,54.14
2024-05-09T22:27:35.209Z,53.86
2024-05-09T22:30:40.607Z,53.45
2024-05-09T22:33:47.674Z,53.82
2024-05-09T22:36:50.220Z,53.84
2024-05-09T22:39:54.891Z,53.90
2024-05-09T22:42:56.881Z,54.58
2024-05-09T22:46:05.885Z,55.07
2024-05-09T22:49:07.937Z,54.58
2024-05-09T22:52:13.294Z,54.35
2024-05-09T22:55:15.791Z,53.97
2024-05-09T22:58:20.797Z,53.87
2024-05-09T23:01:28.221Z,54.29
2024-05-09T23:04:30.214Z,54.73
2024-05-09T23:07:35.116Z,54.93
2024-05-09T23:10:38.206Z,55.11
2024-05-09T23:13:43.197Z,54.54
2024-05-09T23:16:47.997Z,55.43
2024-05-09T23:19:52.733Z,55.13
2024-05-09T23:22:54.654Z,55.02
2024-05-09T23:25:59.213Z,55.54
2024-05-09T23:29:01.593Z,55.75
2024-05-09T23:32:09.544Z,55.33
2024-05-09T23:35:11.509Z,55.68
2024-05-09T23:38:16.555Z,55.69
2024-05-09T23:41:18.451Z,55.96
2024-05-09T23:44:23.040Z,56.40
2024-05-09T23:47:27.712Z,56.26
2024-05-09T23:50:36.190Z,56.22
2024-05-09T23:53:47.254Z,56.10
2024-05-09T23:56:49.145Z,56.30
2024-05-09T23:59:54.070Z,56.44
